EDVK/KSF METAR and TAF weather

Enter ICAO airport designator
Station Type Date Time Source
EDVK METAR 2019/02/15 20:50 UTC NOAA

EDVK 152050Z 09006KT CAVOK 05/00 Q1029


Station Type Date Time Source
EDVK Decoded METAR 2019/02/15 20:50 UTC NOAA

Kassel / Calden, Germany (EDVK) 51-24N 009-23E 283M
Feb 15, 2019 - 03:50 PM EST / 2019.02.15 2050 UTC
Wind: from the E (090 degrees) at 7 MPH (6 KT):0
Visibility: greater than 7 mile(s):0
Temperature: 41 F (5 C)
Dew Point: 32 F (0 C)
Relative Humidity: 70%
Pressure (altimeter): 30.39 in. Hg (1029 hPa)
ob: EDVK 152050Z 09006KT CAVOK 05/00 Q1029
cycle: 21

Station Type Date Time Source
EDVK TAF 2011/03/23 07:09 UTC NOAA

TAF COR EDVK 230655Z 2307/2321 30002KT 3500 BR SCT025 PROB30
TEMPO 2307/2309 1400 BCFG
BECMG 2307/2310 01007KT 8000


Example: see airport list